Time;durP1;ratioP1;P1;durP2;ratioP2;P2;SDS_P1;SDS_P2;PMS_P1;PMS_P2;Temp;Humidity;BMP_temperature;BMP_pressure;BME280_temperature;BME280_humidity;BME280_pressure;Samples;Min_cycle;Max_cycle;Signal;HPM_P1;HPM_P2
2022/01/13 00:00:51;;;;;;;36.33;18.70;;;0.90;99.90;;;;;;5006869;28;20038;-84
2022/01/13 00:03:17;;;;;;;35.78;18.25;;;0.90;99.90;;;;;;4988197;28;20030;-86
2022/01/13 00:05:43;;;;;;;37.83;18.50;;;0.90;99.90;;;;;;5004218;28;20060;-87
2022/01/13 00:08:08;;;;;;;33.13;17.95;;;0.90;99.90;;;;;;4982815;28;20031;-85
2022/01/13 00:10:34;;;;;;;34.95;16.67;;;4.00;99.90;;;;;;4983966;28;20081;-83
2022/01/13 00:13:07;;;;;;;38.00;18.02;;;2.60;99.90;;;;;;5002918;28;20018;-84
2022/01/13 00:15:47;;;;;;;34.53;18.35;;;0.90;99.90;;;;;;4996622;28;20022;-85
2022/01/13 00:18:18;;;;;;;35.70;17.77;;;;;;;;;;5005935;28;20030;-84
2022/01/13 00:26:16;;;;;;;39.78;18.10;;;;;;;;;;5005710;28;20031;-82
2022/01/13 00:28:44;;;;;;;35.42;17.80;;;;;;;;;;5005067;28;20089;-84
2022/01/13 00:31:11;;;;;;;34.95;17.55;;;;;;;;;;5002685;28;20018;-86
2022/01/13 00:33:43;;;;;;;37.65;17.90;;;;;;;;;;5006952;28;20015;-84
2022/01/13 00:36:09;;;;;;;33.63;17.88;;;0.80;99.90;;;;;;5002587;28;20022;-83
2022/01/13 00:38:40;;;;;;;38.03;17.60;;;0.80;99.90;;;;;;4989428;28;20069;-82
2022/01/13 00:41:07;;;;;;;34.75;17.73;;;;;;;;;;4998415;28;20022;-85
2022/01/13 00:43:37;;;;;;;29.60;16.25;;;;;;;;;;5010515;28;20040;-85
2022/01/13 00:46:03;;;;;;;33.53;16.33;;;0.90;99.90;;;;;;4988616;28;20026;-86
2022/01/13 00:48:28;;;;;;;35.65;16.80;;;0.80;99.90;;;;;;4992471;28;20037;-82
2022/01/13 00:50:54;;;;;;;35.53;17.40;;;3.70;99.90;;;;;;4990777;28;20078;-82
2022/01/13 00:53:19;;;;;;;34.60;17.65;;;1.40;99.90;;;;;;4992470;28;20039;-84
2022/01/13 00:55:57;;;;;;;31.13;16.00;;;0.90;99.90;;;;;;4992149;28;20056;-84
2022/01/13 00:58:23;;;;;;;32.50;16.67;;;;;;;;;;5001086;28;20044;-83
2022/01/13 01:00:49;;;;;;;33.47;17.05;;;0.80;99.90;;;;;;5007119;28;20027;-86
2022/01/13 01:03:15;;;;;;;34.25;17.75;;;0.80;99.90;;;;;;4989013;28;20030;-82
2022/01/13 01:05:41;;;;;;;35.83;16.50;;;;;;;;;;4990151;28;20022;-84
2022/01/13 01:08:09;;;;;;;34.13;15.55;;;0.80;99.90;;;;;;5005241;28;20026;-85
2022/01/13 01:10:35;;;;;;;30.67;15.75;;;;;;;;;;5000603;28;20023;-84
2022/01/13 01:13:10;;;;;;;32.17;15.73;;;0.80;99.90;;;;;;5001628;28;20027;-82
2022/01/13 01:15:36;;;;;;;33.35;16.02;;;;;;;;;;5003515;28;20097;-84
2022/01/13 01:18:12;;;;;;;31.33;16.48;;;0.80;99.90;;;;;;5006699;28;20026;-86
2022/01/13 01:20:48;;;;;;;30.25;15.48;;;;;;;;;;4999491;28;20053;-88
2022/01/13 01:23:19;;;;;;;34.03;15.10;;;0.80;99.90;;;;;;4997108;28;20042;-84
2022/01/13 01:28:39;;;;;;;32.13;14.90;;;0.70;99.90;;;;;;5003377;28;20050;-82
2022/01/13 01:31:04;;;;;;;28.98;15.07;;;0.30;99.90;;;;;;4989035;28;20022;-83
2022/01/13 01:33:32;;;;;;;30.50;14.10;;;0.70;99.90;;;;;;4991186;28;20042;-81
2022/01/13 01:35:58;;;;;;;27.65;14.35;;;0.70;99.90;;;;;;4987396;28;20034;-80
2022/01/13 01:38:24;;;;;;;29.63;14.75;;;0.70;99.90;;;;;;5002879;28;20084;-81
2022/01/13 01:40:49;;;;;;;32.90;15.30;;;0.70;99.90;;;;;;4969375;28;20018;-84
2022/01/13 01:43:15;;;;;;;31.17;15.93;;;0.70;99.90;;;;;;4991215;28;20026;-82
2022/01/13 01:45:46;;;;;;;29.00;14.80;;;0.70;99.90;;;;;;4986501;28;20049;-82
2022/01/13 01:48:18;;;;;;;28.98;15.30;;;0.70;99.90;;;;;;4986798;28;20018;-85
2022/01/13 01:50:53;;;;;;;28.40;14.80;;;0.70;99.90;;;;;;4993207;28;20026;-84
2022/01/13 01:53:19;;;;;;;31.40;15.30;;;;;;;;;;4998172;28;20022;-83
2022/01/13 01:55:45;;;;;;;29.08;14.82;;;0.70;99.90;;;;;;5008801;28;20030;-86
2022/01/13 01:58:11;;;;;;;28.85;14.52;;;2.00;99.90;;;;;;4989840;28;20030;-87
2022/01/13 02:00:37;;;;;;;27.63;14.85;;;0.60;99.90;;;;;;4995113;28;20026;-84
2022/01/13 02:03:05;;;;;;;30.90;14.38;;;0.70;99.90;;;;;;5009509;28;20073;-87
2022/01/13 02:05:30;;;;;;;28.63;13.50;;;3.60;99.90;;;;;;5008210;28;20018;-84
2022/01/13 02:07:56;;;;;;;25.90;15.15;;;;;;;;;;4992826;28;20026;-83
2022/01/13 02:10:22;;;;;;;28.65;14.10;;;0.60;99.90;;;;;;5012173;28;20094;-85
2022/01/13 02:12:52;;;;;;;28.17;13.88;;;0.50;99.90;;;;;;4987940;28;20035;-82
2022/01/13 02:15:33;;;;;;;24.55;13.50;;;0.80;99.90;;;;;;5004866;28;20026;-82
2022/01/13 02:18:01;;;;;;;28.23;12.82;;;-0.90;99.90;;;;;;4987537;28;20102;-85
2022/01/13 02:20:51;;;;;;;22.75;11.18;;;1.00;99.90;;;;;;4999769;28;20026;-84
2022/01/13 02:23:50;;;;;;;18.20;9.73;;;0.80;99.90;;;;;;4976761;28;20103;-82
2022/01/13 02:26:16;;;;;;;16.75;9.05;;;;;;;;;;4964660;28;20026;-81
2022/01/13 02:28:43;;;;;;;19.65;10.30;;;1.10;99.90;;;;;;5002046;28;20037;-83
2022/01/13 02:31:09;;;;;;;17.45;10.20;;;1.10;99.90;;;;;;4989455;28;20034;-84
2022/01/13 02:33:35;;;;;;;20.27;11.02;;;0.80;99.90;;;;;;4989597;28;20018;-84
2022/01/13 02:36:02;;;;;;;19.83;10.20;;;1.20;99.90;;;;;;4987115;28;20065;-81
2022/01/13 02:38:27;;;;;;;21.40;10.90;;;4.10;99.90;;;;;;4989995;28;20033;-82
2022/01/13 02:40:58;;;;;;;22.98;10.73;;;1.20;99.90;;;;;;4987457;28;20027;-86
2022/01/13 02:43:25;;;;;;;19.67;10.80;;;1.10;99.90;;;;;;4984275;28;20031;-87
2022/01/13 02:48:52;;;;;;;21.58;11.00;;;1.30;99.90;;;;;;4965488;28;20020;-85
2022/01/13 02:51:18;;;;;;;22.45;11.23;;;3.10;99.90;;;;;;4980295;28;20026;-83
2022/01/13 02:53:44;;;;;;;25.17;12.02;;;1.10;99.90;;;;;;4989755;28;20141;-84
2022/01/13 02:56:10;;;;;;;22.10;11.27;;;1.20;99.90;;;;;;4984938;28;20026;-84
2022/01/13 02:58:36;;;;;;;22.05;11.63;;;1.20;99.90;;;;;;5001413;28;20037;-85
2022/01/13 03:01:03;;;;;;;25.45;12.57;;;1.20;99.90;;;;;;5000502;28;20019;-85
2022/01/13 03:03:30;;;;;;;25.13;13.27;;;0.30;99.90;;;;;;5002472;28;20015;-86
2022/01/13 03:05:57;;;;;;;30.42;14.48;;;;;;;;;;4999714;28;20022;-87
2022/01/13 03:08:23;;;;;;;23.20;11.82;;;;;;;;;;4989390;28;20037;-85
2022/01/13 03:10:49;;;;;;;22.70;11.23;;;;;;;;;;5004501;28;20037;-83
2022/01/13 03:13:17;;;;;;;28.60;12.23;;;1.30;99.90;;;;;;5008801;28;20193;-85
2022/01/13 03:15:43;;;;;;;24.10;12.98;;;1.00;99.90;;;;;;4987114;28;20033;-88
2022/01/13 03:18:09;;;;;;;22.58;12.40;;;4.00;99.90;;;;;;4982610;28;20027;-83
2022/01/13 03:20:34;;;;;;;23.15;11.98;;;;;;;;;;4990719;28;20121;-83
2022/01/13 03:23:04;;;;;;;25.98;13.00;;;1.30;99.90;;;;;;5003867;28;20650;-83
2022/01/13 03:25:30;;;;;;;22.30;12.18;;;2.90;99.90;;;;;;4987204;28;20027;-84
2022/01/13 03:28:04;;;;;;;19.23;10.75;;;;;;;;;;4978850;28;20030;-86
2022/01/13 03:30:29;;;;;;;20.33;10.40;;;1.30;99.90;;;;;;4997228;28;20019;-83
2022/01/13 03:32:55;;;;;;;23.98;12.65;;;1.00;99.90;;;;;;4987480;28;20507;-82
2022/01/13 03:35:21;;;;;;;25.00;12.85;;;1.20;99.90;;;;;;4988900;28;20054;-85
2022/01/13 03:37:47;;;;;;;22.52;12.20;;;1.70;99.90;;;;;;5002350;28;20034;-84
2022/01/13 03:40:13;;;;;;;22.88;12.73;;;1.20;99.90;;;;;;4992866;28;20038;-85
2022/01/13 03:42:39;;;;;;;25.67;13.15;;;1.20;99.90;;;;;;4996234;28;20547;-82
2022/01/13 03:45:05;;;;;;;25.58;12.75;;;1.20;99.90;;;;;;4984051;28;20030;-82
2022/01/13 03:47:31;;;;;;;21.88;10.90;;;1.20;99.90;;;;;;4991617;28;20019;-84
2022/01/13 03:49:56;;;;;;;24.20;12.18;;;1.10;99.90;;;;;;4989883;28;20058;-83
2022/01/13 03:52:22;;;;;;;22.35;10.90;;;1.30;99.90;;;;;;4989601;28;20038;-83
2022/01/13 03:55:12;;;;;;;22.52;11.77;;;1.30;99.90;;;;;;4989210;28;20266;-84
2022/01/13 03:58:28;;;;;;;20.77;10.60;;;1.50;99.90;;;;;;5007629;28;20038;-85
2022/01/13 04:01:23;;;;;;;24.38;12.63;;;1.40;99.90;;;;;;4990599;28;20092;-83
2022/01/13 04:03:48;;;;;;;21.83;11.57;;;-0.80;99.90;;;;;;4991239;28;20078;-84
2022/01/13 04:06:14;;;;;;;22.40;10.80;;;1.20;99.90;;;;;;4995098;28;20022;-86
2022/01/13 04:08:40;;;;;;;20.13;10.32;;;1.40;99.90;;;;;;5005408;28;20510;-88
2022/01/13 04:11:08;;;;;;;18.05;9.57;;;1.40;99.90;;;;;;4991252;28;20037;-85
2022/01/13 04:16:27;;;;;;;20.73;10.35;;;1.50;99.90;;;;;;5004552;28;20018;-85
2022/01/13 04:18:57;;;;;;;16.00;9.23;;;1.50;99.90;;;;;;4988319;28;20060;-85
2022/01/13 04:21:22;;;;;;;16.77;9.57;;;1.40;99.90;;;;;;4987387;28;20101;-88
2022/01/13 04:23:49;;;;;;;19.88;10.23;;;1.30;99.90;;;;;;4989987;28;20046;-84
2022/01/13 04:26:19;;;;;;;19.85;10.20;;;1.40;99.90;;;;;;5001379;28;20019;-81
2022/01/13 04:28:46;;;;;;;22.60;10.10;;;1.40;99.90;;;;;;4991348;28;20054;-85
2022/01/13 04:31:11;;;;;;;18.10;9.50;;;3.20;99.90;;;;;;4991950;28;20029;-86
2022/01/13 04:33:38;;;;;;;18.30;9.50;;;1.40;99.90;;;;;;5003742;28;20479;-87
2022/01/13 04:36:06;;;;;;;21.90;10.48;;;4.40;99.90;;;;;;4989241;28;20030;-85
2022/01/13 04:38:32;;;;;;;19.80;10.40;;;;;;;;;;4987098;28;20026;-83
2022/01/13 04:41:01;;;;;;;18.35;9.30;;;;;;;;;;5001841;28;20030;-84
2022/01/13 04:43:31;;;;;;;19.77;10.00;;;1.50;99.90;;;;;;5004119;28;20046;-86
2022/01/13 04:45:57;;;;;;;19.55;9.93;;;1.50;99.90;;;;;;5004565;28;20279;-85
2022/01/13 04:48:24;;;;;;;20.60;10.70;;;1.50;99.90;;;;;;5003584;28;20045;-84
2022/01/13 04:50:50;;;;;;;18.55;10.13;;;;;;;;;;5005301;28;20034;-87
2022/01/13 04:53:16;;;;;;;21.75;10.32;;;1.50;99.90;;;;;;5011392;28;20030;-85
2022/01/13 04:55:50;;;;;;;18.45;9.50;;;4.00;99.90;;;;;;4988972;28;20033;-83
2022/01/13 04:58:16;;;;;;;18.88;10.32;;;1.50;99.90;;;;;;5002058;28;20049;-87
2022/01/13 05:00:42;;;;;;;21.20;11.45;;;1.40;99.90;;;;;;4992918;28;20121;-86
2022/01/13 05:03:08;;;;;;;20.30;11.93;;;1.50;99.90;;;;;;4991115;28;20030;-85
2022/01/13 05:05:34;;;;;;;19.38;9.88;;;1.40;99.90;;;;;;4992780;28;20030;-86
2022/01/13 05:08:00;;;;;;;22.17;9.98;;;;;;;;;;4990513;28;20099;-85
2022/01/13 05:10:26;;;;;;;19.55;9.77;;;1.50;99.90;;;;;;4989621;28;20081;-82
2022/01/13 05:12:56;;;;;;;18.48;9.57;;;1.60;99.90;;;;;;5004772;28;20026;-83
2022/01/13 05:15:26;;;;;;;19.05;10.02;;;1.10;99.90;;;;;;5010373;28;20097;-85
2022/01/13 05:20:26;;;;;;;24.25;11.52;;;1.50;99.90;;;;;;5007783;28;20057;-85
2022/01/13 05:22:52;;;;;;;21.95;10.68;;;1.30;99.90;;;;;;4989627;28;20034;-85
2022/01/13 05:25:19;;;;;;;19.30;10.68;;;1.50;99.90;;;;;;4991169;28;20034;-83
2022/01/13 05:27:47;;;;;;;23.10;10.77;;;1.40;99.90;;;;;;4993480;28;20026;-84
2022/01/13 05:30:15;;;;;;;22.80;11.73;;;3.30;99.90;;;;;;4985012;28;20022;-86
2022/01/13 05:32:42;;;;;;;19.65;9.95;;;1.90;99.90;;;;;;5005143;28;20033;-84
2022/01/13 05:35:08;;;;;;;20.08;10.20;;;1.40;99.90;;;;;;4984100;28;20041;-84
2022/01/13 05:37:34;;;;;;;22.77;10.10;;;1.50;99.90;;;;;;4982811;28;20117;-84
2022/01/13 05:40:00;;;;;;;22.73;11.13;;;1.50;99.90;;;;;;4984784;28;20111;-83
2022/01/13 05:42:26;;;;;;;22.10;9.98;;;1.60;99.90;;;;;;4988146;28;20033;-81
2022/01/13 05:44:52;;;;;;;22.42;11.05;;;1.40;99.90;;;;;;4994183;28;20022;-83
2022/01/13 05:47:21;;;;;;;21.30;10.32;;;1.50;99.90;;;;;;4985731;28;20054;-85
2022/01/13 05:49:47;;;;;;;25.27;11.85;;;2.60;99.90;;;;;;4988977;28;20237;-85
2022/01/13 05:52:14;;;;;;;24.33;10.63;;;1.40;99.90;;;;;;4986682;28;20030;-82
2022/01/13 05:54:40;;;;;;;23.80;11.48;;;1.40;99.90;;;;;;4986009;28;20092;-82
2022/01/13 05:57:06;;;;;;;26.63;12.23;;;1.40;99.90;;;;;;4984265;28;20026;-82
2022/01/13 05:59:32;;;;;;;24.15;12.05;;;1.40;99.90;;;;;;4999264;28;20094;-86
2022/01/13 06:01:59;;;;;;;27.92;13.45;;;1.40;99.90;;;;;;4976597;28;20139;-84
2022/01/13 06:04:24;;;;;;;23.50;11.50;;;1.30;99.90;;;;;;4976026;28;20113;-84
2022/01/13 06:06:50;;;;;;;24.67;12.50;;;1.40;99.90;;;;;;4991108;28;20058;-83
2022/01/13 06:09:16;;;;;;;24.67;12.18;;;1.40;99.90;;;;;;4977675;28;20118;-85
2022/01/13 06:11:51;;;;;;;25.38;10.68;;;1.50;99.90;;;;;;4980110;28;20026;-83
2022/01/13 06:14:17;;;;;;;25.30;11.93;;;;;;;;;;4978480;28;20069;-84
2022/01/13 06:16:43;;;;;;;22.90;11.82;;;;;;;;;;4994525;28;20145;-83
2022/01/13 06:19:09;;;;;;;26.88;13.18;;;1.40;99.90;;;;;;4996117;28;20026;-83
2022/01/13 06:21:35;;;;;;;24.85;12.40;;;2.80;99.90;;;;;;4984749;28;20026;-85
2022/01/13 06:24:01;;;;;;;23.63;11.52;;;;;;;;;;4982263;28;20098;-82
2022/01/13 06:26:27;;;;;;;26.65;12.63;;;;;;;;;;4998117;28;20518;-83
2022/01/13 06:28:53;;;;;;;24.30;11.70;;;1.30;99.90;;;;;;5001611;28;20069;-84
2022/01/13 06:31:19;;;;;;;25.10;12.48;;;1.30;99.90;;;;;;5003951;28;20026;-85
2022/01/13 06:33:45;;;;;;;27.15;12.55;;;-1.10;99.90;;;;;;4988148;28;20023;-83
2022/01/13 06:36:13;;;;;;;25.67;12.70;;;1.20;99.90;;;;;;4985789;28;20041;-84
2022/01/13 06:38:39;;;;;;;25.17;12.65;;;;;;;;;;5001847;28;20054;-83
2022/01/13 06:41:05;;;;;;;26.23;12.23;;;1.30;99.90;;;;;;5001045;28;20018;-84
2022/01/13 06:43:33;;;;;;;25.95;13.45;;;;;;;;;;4985525;28;20039;-86
2022/01/13 06:46:01;;;;;;;26.35;12.43;;;1.20;99.90;;;;;;5002968;28;20034;-86
2022/01/13 06:48:27;;;;;;;29.70;13.80;;;;;;;;;;4985995;28;20091;-81
2022/01/13 06:50:53;;;;;;;33.05;14.63;;;1.20;99.90;;;;;;5004175;28;20503;-84
2022/01/13 06:53:20;;;;;;;26.02;12.30;;;2.80;99.90;;;;;;4987904;28;20038;-85
2022/01/13 06:55:46;;;;;;;30.33;14.27;;;;;;;;;;4976113;28;20464;-84
2022/01/13 06:58:12;;;;;;;29.63;12.48;;;;;;;;;;5009324;28;20061;-83
2022/01/13 07:00:38;;;;;;;25.48;12.50;;;1.50;99.90;;;;;;5008941;28;20026;-86
2022/01/13 07:03:05;;;;;;;29.90;13.15;;;;;;;;;;4986813;28;20034;-83
2022/01/13 07:05:33;;;;;;;25.10;11.98;;;1.60;99.90;;;;;;5007722;28;20081;-87
2022/01/13 07:07:59;;;;;;;25.25;12.30;;;;;;;;;;4987936;28;20029;-83
2022/01/13 07:10:28;;;;;;;27.92;12.02;;;1.60;99.90;;;;;;5006053;28;20046;-85
2022/01/13 07:12:54;;;;;;;23.15;10.98;;;;;;;;;;5004033;28;20026;-84
2022/01/13 07:15:20;;;;;;;23.65;12.18;;;;;;;;;;5003616;28;20464;-85
2022/01/13 07:17:46;;;;;;;23.92;12.48;;;;;;;;;;4985233;28;20130;-86
2022/01/13 07:20:13;;;;;;;27.45;12.48;;;;;;;;;;5003073;28;20367;-86
2022/01/13 07:22:39;;;;;;;27.92;12.48;;;1.50;99.90;;;;;;5011087;28;20038;-81
2022/01/13 07:25:07;;;;;;;26.58;13.25;;;1.50;99.90;;;;;;4992581;28;20054;-83
2022/01/13 07:27:33;;;;;;;26.40;12.40;;;;;;;;;;4992534;28;20022;-84
2022/01/13 07:29:58;;;;;;;27.35;12.82;;;1.50;99.90;;;;;;5002980;28;20050;-87
2022/01/13 07:32:24;;;;;;;29.13;12.25;;;;;;;;;;4998404;28;20030;-86
2022/01/13 07:34:51;;;;;;;25.75;12.73;;;;;;;;;;4995811;28;20468;-84
2022/01/13 07:37:17;;;;;;;25.77;11.77;;;;;;;;;;4994948;28;20093;-86
2022/01/13 07:39:43;;;;;;;29.05;12.60;;;;;;;;;;5010575;28;20057;-86
2022/01/13 07:42:09;;;;;;;24.83;11.60;;;;;;;;;;5011791;28;20502;-85
2022/01/13 07:44:35;;;;;;;26.60;12.20;;;;;;;;;;5007012;28;20443;-86
2022/01/13 07:47:01;;;;;;;28.42;13.57;;;;;;;;;;5007141;28;20014;-87
2022/01/13 07:49:31;;;;;;;29.02;12.95;;;1.40;99.90;;;;;;5013668;28;20019;-84
2022/01/13 07:51:57;;;;;;;25.02;12.13;;;;;;;;;;5012634;28;20031;-85
2022/01/13 07:54:25;;;;;;;23.23;10.75;;;;;;;;;;5004227;28;20026;-83
2022/01/13 07:56:52;;;;;;;24.05;12.05;;;;;;;;;;5012807;28;20095;-84
2022/01/13 07:59:18;;;;;;;25.83;11.82;;;;;;;;;;5012073;28;20098;-84
2022/01/13 08:01:44;;;;;;;24.35;11.50;;;;;;;;;;5009762;28;20030;-84
2022/01/13 08:04:10;;;;;;;28.50;12.23;;;;;;;;;;5010714;28;20019;-88
2022/01/13 08:06:36;;;;;;;37.20;15.13;;;;;;;;;;5002895;28;20043;-85
2022/01/13 08:09:02;;;;;;;26.83;12.73;;;;;;;;;;4985333;28;20065;-85
2022/01/13 08:11:28;;;;;;;25.42;11.35;;;;;;;;;;5005143;28;20443;-83
2022/01/13 08:13:54;;;;;;;27.08;12.20;;;1.40;99.90;;;;;;4989266;28;20022;-83
2022/01/13 08:16:20;;;;;;;28.15;12.63;;;3.10;99.90;;;;;;4983268;28;20030;-88
2022/01/13 08:21:30;;;;;;;24.70;11.15;;;1.30;99.90;;;;;;5007162;28;20045;-86
2022/01/13 08:23:56;;;;;;;25.83;12.25;;;4.00;99.90;;;;;;4989645;28;20095;-85
2022/01/13 08:26:22;;;;;;;24.98;12.02;;;3.10;99.90;;;;;;4985723;28;20053;-83
2022/01/13 08:28:47;;;;;;;24.63;12.25;;;2.50;99.90;;;;;;4985543;28;21014;-89
2022/01/13 08:31:13;;;;;;;22.90;10.60;;;1.40;99.90;;;;;;4988476;28;20416;-87
2022/01/13 08:33:39;;;;;;;24.30;11.55;;;3.60;99.90;;;;;;4987177;28;20026;-86
2022/01/13 08:36:05;;;;;;;24.65;11.48;;;3.70;99.90;;;;;;4982265;28;20034;-88
2022/01/13 08:38:33;;;;;;;24.65;12.00;;;1.50;99.90;;;;;;5001747;28;20131;-88
2022/01/13 08:41:00;;;;;;;26.52;11.35;;;;;;;;;;5005242;28;20094;-83
2022/01/13 08:43:28;;;;;;;25.23;11.80;;;1.50;99.90;;;;;;4983313;28;20034;-91
2022/01/13 08:45:54;;;;;;;24.20;12.30;;;0.90;99.90;;;;;;4975639;28;20037;-86
2022/01/13 08:48:21;;;;;;;20.60;9.80;;;1.50;99.90;;;;;;4987465;28;20049;-84
2022/01/13 08:50:47;;;;;;;22.45;10.55;;;0.80;99.90;;;;;;4984049;28;20046;-83
2022/01/13 08:53:17;;;;;;;19.50;9.90;;;4.10;99.90;;;;;;4979003;28;20095;-83
2022/01/13 08:55:42;;;;;;;21.88;10.32;;;3.00;99.90;;;;;;4993601;28;20082;-91
2022/01/13 08:58:08;;;;;;;24.42;9.77;;;2.60;99.90;;;;;;4994018;28;20035;-86
2022/01/13 09:00:37;;;;;;;20.38;10.18;;;1.80;99.90;;;;;;4991199;28;20098;-85
2022/01/13 09:03:07;;;;;;;25.83;10.95;;;3.10;99.90;;;;;;4958788;28;20043;-85
2022/01/13 09:05:33;;;;;;;21.23;10.27;;;1.80;99.90;;;;;;4985380;28;20117;-85
2022/01/13 09:07:59;;;;;;;21.10;9.88;;;2.10;99.90;;;;;;4981019;28;20027;-87
2022/01/13 09:10:25;;;;;;;23.90;10.40;;;4.20;99.90;;;;;;4988011;28;20041;-86
2022/01/13 09:12:51;;;;;;;20.90;10.10;;;4.00;99.90;;;;;;4977237;28;20026;-85
2022/01/13 09:15:19;;;;;;;23.95;10.60;;;1.50;99.90;;;;;;4980138;28;20038;-87
2022/01/13 09:17:51;;;;;;;24.75;12.57;;;-0.10;99.90;;;;;;4985441;28;20044;-88
2022/01/13 09:20:17;;;;;;;25.88;11.35;;;;;;;;;;4986269;28;20035;-88
2022/01/13 09:22:43;;;;;;;23.58;10.85;;;1.80;99.90;;;;;;5001213;28;20072;-85
2022/01/13 09:25:11;;;;;;;25.10;11.07;;;3.80;99.90;;;;;;4991986;28;20033;-84
2022/01/13 09:27:40;;;;;;;23.38;11.00;;;1.80;99.90;;;;;;4989724;28;20031;-85
2022/01/13 09:30:10;;;;;;;24.30;12.00;;;1.90;99.90;;;;;;4987569;28;20034;-84
2022/01/13 09:32:39;;;;;;;23.92;11.15;;;1.70;99.90;;;;;;4986007;28;20094;-86
2022/01/13 09:35:07;;;;;;;25.73;11.65;;;2.90;99.90;;;;;;4987706;28;20557;-88
2022/01/13 09:37:34;;;;;;;26.92;12.23;;;2.00;99.90;;;;;;4981326;28;20030;-86
2022/01/13 09:40:00;;;;;;;20.17;10.40;;;3.40;99.90;;;;;;5003042;28;20031;-84
2022/01/13 09:42:27;;;;;;;24.10;10.57;;;1.70;99.90;;;;;;4991065;28;20034;-86
2022/01/13 09:44:57;;;;;;;21.75;10.93;;;3.40;99.90;;;;;;4997047;28;20480;-84
2022/01/13 09:47:23;;;;;;;20.90;10.48;;;4.20;99.90;;;;;;4983206;28;20053;-84
2022/01/13 09:49:50;;;;;;;24.83;11.73;;;2.00;99.90;;;;;;4985881;28;20018;-83
2022/01/13 09:52:19;;;;;;;23.67;11.60;;;2.00;99.90;;;;;;4980703;28;20102;-83
2022/01/13 09:54:45;;;;;;;21.13;10.98;;;3.40;99.90;;;;;;4984393;28;20064;-85
2022/01/13 09:57:12;;;;;;;21.30;10.02;;;3.40;99.90;;;;;;4988690;28;20050;-84
2022/01/13 09:59:38;;;;;;;24.05;11.07;;;2.10;99.90;;;;;;5006272;28;20030;-84
2022/01/13 10:02:03;;;;;;;19.88;10.10;;;2.00;99.90;;;;;;4994104;28;20034;-86
2022/01/13 10:05:02;;;;;;;21.77;11.48;;;2.00;99.90;;;;;;4992979;28;20173;-89
2022/01/13 10:07:36;;;;;;;21.67;10.00;;;2.30;99.90;;;;;;4978284;28;20058;-85
2022/01/13 10:10:14;;;;;;;20.25;10.75;;;2.30;99.90;;;;;;4987724;28;20023;-86
2022/01/13 10:12:44;;;;;;;23.20;10.45;;;2.20;99.90;;;;;;4990356;28;20042;-88
2022/01/13 10:18:06;;;;;;;20.23;9.48;;;4.30;99.90;;;;;;5005911;28;21079;-84
2022/01/13 10:20:33;;;;;;;19.58;9.07;;;4.20;99.90;;;;;;4989562;28;20038;-83
2022/01/13 10:23:09;;;;;;;21.88;10.60;;;3.60;99.90;;;;;;4990478;28;20055;-82
2022/01/13 10:25:41;;;;;;;23.63;10.45;;;2.40;99.90;;;;;;4998356;28;20110;-83
2022/01/13 10:28:23;;;;;;;20.35;9.32;;;2.50;99.90;;;;;;5005895;28;20034;-82
2022/01/13 10:30:53;;;;;;;20.02;10.05;;;2.60;99.90;;;;;;4989188;28;20080;-81
2022/01/13 10:33:28;;;;;;;20.77;9.65;;;2.50;99.90;;;;;;4988959;28;20061;-83
2022/01/13 10:36:09;;;;;;;21.92;11.20;;;2.40;99.90;;;;;;5007299;28;20403;-83
2022/01/13 10:38:54;;;;;;;22.67;10.45;;;2.50;99.90;;;;;;5015193;28;20014;-89
2022/01/13 10:41:38;;;;;;;22.08;10.60;;;2.50;99.90;;;;;;5001618;28;20038;-91
2022/01/13 10:44:15;;;;;;;21.63;11.13;;;2.60;99.90;;;;;;4999560;28;20054;-90
2022/01/13 10:47:01;;;;;;;18.95;10.60;;;2.70;99.90;;;;;;5014653;28;20023;-89
2022/01/13 10:49:42;;;;;;;21.35;11.20;;;4.80;99.90;;;;;;5017606;28;20025;-88
2022/01/13 10:52:26;;;;;;;18.15;9.57;;;3.10;99.90;;;;;;4994108;28;20102;-86
2022/01/13 10:54:54;;;;;;;23.95;10.70;;;2.80;99.90;;;;;;5008833;28;20018;-87
2022/01/13 10:57:23;;;;;;;22.52;11.02;;;4.00;99.90;;;;;;5007651;28;20089;-83
2022/01/13 10:59:49;;;;;;;19.83;10.70;;;;;;;;;;4974222;28;20038;-81
2022/01/13 11:02:18;;;;;;;21.75;10.90;;;2.70;99.90;;;;;;4995098;28;20034;-86
2022/01/13 11:04:44;;;;;;;24.95;11.55;;;2.50;99.90;;;;;;4999258;28;20030;-83
2022/01/13 11:07:21;;;;;;;22.00;11.00;;;2.40;99.90;;;;;;4995232;28;20026;-87
2022/01/13 11:09:53;;;;;;;21.60;11.25;;;2.40;99.90;;;;;;4981276;28;20142;-84
2022/01/13 11:12:34;;;;;;;20.80;10.32;;;4.40;99.90;;;;;;4985298;28;20030;-83
2022/01/13 11:15:04;;;;;;;23.55;11.15;;;;;;;;;;5001457;28;20086;-83
2022/01/13 11:17:33;;;;;;;24.27;11.65;;;2.50;99.90;;;;;;5006279;28;20018;-86
2022/01/13 11:19:59;;;;;;;22.08;11.38;;;;;;;;;;5008941;28;20044;-85
2022/01/13 11:22:25;;;;;;;22.08;12.40;;;2.60;99.90;;;;;;5008961;28;20047;-87
2022/01/13 11:24:51;;;;;;;20.92;10.77;;;1.10;99.90;;;;;;4992398;28;20030;-86
2022/01/13 11:27:19;;;;;;;20.27;10.30;;;3.60;99.90;;;;;;4980344;28;20034;-86
2022/01/13 11:29:46;;;;;;;22.60;11.90;;;;;;;;;;4996664;28;20032;-88
2022/01/13 11:32:15;;;;;;;22.70;10.68;;;2.80;99.90;;;;;;4999087;28;20049;-83
2022/01/13 11:34:41;;;;;;;21.92;11.18;;;2.70;99.90;;;;;;4993194;28;20063;-88
2022/01/13 11:37:07;;;;;;;21.88;10.60;;;2.50;99.90;;;;;;4996889;28;20030;-87
2022/01/13 11:39:41;;;;;;;21.85;10.80;;;2.90;99.90;;;;;;5002891;28;20097;-84
2022/01/13 11:42:10;;;;;;;20.90;10.93;;;2.90;99.90;;;;;;5014625;28;20034;-88
2022/01/13 11:44:36;;;;;;;20.08;10.27;;;3.50;99.90;;;;;;5001004;28;20025;-82
2022/01/13 11:47:08;;;;;;;21.52;10.57;;;5.10;99.90;;;;;;5000118;28;20030;-88
2022/01/13 11:49:44;;;;;;;18.50;10.13;;;2.30;99.90;;;;;;5002631;28;20019;-84
2022/01/13 11:52:28;;;;;;;19.05;10.25;;;3.60;99.90;;;;;;4995864;28;20034;-82
2022/01/13 11:54:54;;;;;;;18.98;10.60;;;;;;;;;;4994772;28;20057;-83
2022/01/13 11:57:26;;;;;;;21.25;10.45;;;3.20;99.90;;;;;;5007501;28;20026;-83
2022/01/13 11:59:58;;;;;;;22.42;11.45;;;3.20;99.90;;;;;;4992329;28;20106;-83
2022/01/13 12:02:30;;;;;;;21.02;11.23;;;5.10;99.90;;;;;;5009956;28;20062;-81
2022/01/13 12:05:06;;;;;;;21.60;11.60;;;1.00;99.90;;;;;;4985333;28;20039;-82
2022/01/13 12:07:42;;;;;;;20.58;10.48;;;3.10;99.90;;;;;;5008414;28;20105;-83
2022/01/13 12:10:09;;;;;;;21.50;11.63;;;5.00;99.90;;;;;;4987896;28;20081;-84
2022/01/13 12:12:35;;;;;;;22.00;11.27;;;4.80;99.90;;;;;;4998423;28;20031;-85
2022/01/13 12:15:24;;;;;;;23.20;11.48;;;3.10;99.90;;;;;;4988148;28;20598;-82
2022/01/13 12:17:53;;;;;;;22.77;11.52;;;3.30;99.90;;;;;;4989193;28;20420;-82
2022/01/13 12:23:41;;;;;;;22.05;11.38;;;3.40;99.90;;;;;;4997128;28;20031;-85
2022/01/13 12:26:32;;;;;;;24.60;11.75;;;1.70;99.90;;;;;;4987077;28;20033;-84
2022/01/13 12:29:18;;;;;;;22.60;12.38;;;3.30;99.90;;;;;;5005071;28;20030;-85
2022/01/13 12:31:56;;;;;;;21.75;11.13;;;3.50;99.90;;;;;;5005539;28;20050;-82
2022/01/13 12:34:43;;;;;;;26.00;12.43;;;5.70;99.90;;;;;;5002337;28;20086;-84
2022/01/13 12:37:12;;;;;;;21.63;11.30;;;3.50;99.90;;;;;;4989613;28;20775;-87
2022/01/13 12:39:52;;;;;;;21.42;10.70;;;3.90;99.90;;;;;;5011040;28;20023;-85
2022/01/13 12:42:28;;;;;;;21.65;11.20;;;3.70;99.90;;;;;;4989010;28;20030;-85
2022/01/13 12:47:39;;;;;;;22.27;11.52;;;3.70;99.90;;;;;;5005979;28;20036;-84
2022/01/13 12:50:23;;;;;;;24.42;12.07;;;4.60;99.90;;;;;;5011132;28;20030;-84
2022/01/13 12:52:51;;;;;;;20.98;11.20;;;3.90;99.90;;;;;;4993332;28;20022;-87
2022/01/13 12:55:17;;;;;;;27.80;12.10;;;;;;;;;;4995038;28;20033;-85
2022/01/13 12:57:54;;;;;;;25.20;11.70;;;3.90;99.90;;;;;;5006611;28;20045;-85
2022/01/13 13:00:23;;;;;;;19.88;10.25;;;6.60;99.90;;;;;;4992889;28;20502;-88
2022/01/13 13:02:55;;;;;;;21.02;10.90;;;4.00;99.90;;;;;;4990828;28;20026;-84
2022/01/13 13:05:29;;;;;;;22.08;10.38;;;7.00;99.90;;;;;;4991493;28;20022;-86
2022/01/13 13:07:56;;;;;;;20.38;10.65;;;;;;;;;;5006058;28;20032;-83
2022/01/13 13:10:22;;;;;;;23.98;10.40;;;;;;;;;;5006836;28;20030;-84
2022/01/13 13:12:54;;;;;;;19.00;9.73;;;4.10;99.90;;;;;;5003533;28;20040;-85
2022/01/13 13:17:51;;;;;;;20.73;10.85;;;4.20;99.90;;;;;;5007924;28;20045;-82
2022/01/13 13:20:30;;;;;;;18.17;9.95;;;7.20;99.90;;;;;;4996800;28;20049;-83
2022/01/13 13:22:59;;;;;;;19.23;10.77;;;4.20;99.90;;;;;;4987137;28;20026;-82
2022/01/13 13:25:31;;;;;;;18.08;9.80;;;5.00;99.90;;;;;;4989977;28;20026;-83
2022/01/13 13:28:16;;;;;;;20.52;10.20;;;4.20;99.90;;;;;;4981309;28;20054;-82
2022/01/13 13:30:43;;;;;;;20.67;10.35;;;4.20;99.90;;;;;;5001443;28;20034;-83
2022/01/13 13:33:09;;;;;;;20.40;10.38;;;;;;;;;;5007576;28;20026;-83
2022/01/13 13:35:35;;;;;;;18.60;10.13;;;;;;;;;;5000172;28;20041;-87
2022/01/13 13:38:02;;;;;;;21.42;10.40;;;4.20;99.90;;;;;;5002434;28;20098;-86